createdAt,value
2018-05-26T00:00:35.834Z,20.98
2018-05-26T00:01:36.015Z,21.07
2018-05-26T00:02:36.183Z,20.95
2018-05-26T00:03:36.352Z,20.98
2018-05-26T00:04:36.494Z,21.03
2018-05-26T00:05:36.680Z,20.99
2018-05-26T00:06:36.858Z,20.95
2018-05-26T00:07:37.201Z,20.98
2018-05-26T00:08:37.247Z,20.94
2018-05-26T00:09:37.505Z,20.99
2018-05-26T00:10:37.638Z,21.03
2018-05-26T00:11:37.880Z,21.03
2018-05-26T00:12:37.938Z,20.84
2018-05-26T00:13:38.110Z,20.76
2018-05-26T00:14:38.269Z,20.80
2018-05-26T00:15:38.557Z,20.72
2018-05-26T00:16:38.619Z,20.69
2018-05-26T00:17:38.779Z,20.72
2018-05-26T00:18:38.952Z,20.69
2018-05-26T00:19:39.155Z,20.70
2018-05-26T00:20:39.250Z,20.73
2018-05-26T00:21:39.655Z,20.76
2018-05-26T00:22:39.638Z,20.73
2018-05-26T00:23:39.809Z,20.74
2018-05-26T00:24:39.949Z,20.74
2018-05-26T00:25:40.176Z,20.82
2018-05-26T00:26:40.306Z,20.84
2018-05-26T00:27:40.453Z,20.80
2018-05-26T00:28:40.716Z,20.80
2018-05-26T00:29:40.802Z,20.77
2018-05-26T00:30:41.049Z,20.82
2018-05-26T00:31:41.176Z,20.73
2018-05-26T00:32:41.345Z,20.61
2018-05-26T00:33:41.504Z,20.72
2018-05-26T00:34:41.646Z,20.64
2018-05-26T00:35:41.982Z,20.70
2018-05-26T00:36:42.004Z,20.54
2018-05-26T00:37:42.173Z,20.64
2018-05-26T00:38:42.320Z,20.64
2018-05-26T00:39:42.473Z,20.51
2018-05-26T00:40:42.663Z,20.52
2018-05-26T00:41:42.820Z,20.39
2018-05-26T00:42:43.016Z,20.54
2018-05-26T00:43:43.159Z,20.50
2018-05-26T00:44:43.367Z,20.42
2018-05-26T00:45:43.517Z,20.38
2018-05-26T00:46:43.709Z,20.38
2018-05-26T00:47:43.921Z,20.38
2018-05-26T00:48:44.132Z,20.33
2018-05-26T00:49:44.229Z,20.26
2018-05-26T00:50:44.397Z,20.26
2018-05-26T00:51:44.601Z,20.21
2018-05-26T00:52:44.776Z,20.18
2018-05-26T00:53:44.916Z,20.01
2018-05-26T00:54:45.230Z,19.99
2018-05-26T00:55:45.351Z,19.99
2018-05-26T00:56:45.694Z,20.01
2018-05-26T00:57:45.644Z,20.03
2018-05-26T00:58:45.989Z,20.03
2018-05-26T00:59:46.023Z,20.05
2018-05-26T01:00:46.185Z,20.03
2018-05-26T01:01:46.617Z,20.02
2018-05-26T01:02:46.486Z,20.05
2018-05-26T01:03:46.640Z,19.96
2018-05-26T01:04:46.825Z,19.95
2018-05-26T01:05:46.980Z,20.05
2018-05-26T01:06:47.154Z,20.03
2018-05-26T01:07:47.308Z,20.06
2018-05-26T01:08:47.489Z,20.01
2018-05-26T01:09:47.670Z,20.16
2018-05-26T01:10:47.807Z,20.14
2018-05-26T01:11:47.988Z,20.17
2018-05-26T01:12:48.130Z,20.26
2018-05-26T01:13:48.303Z,20.20
2018-05-26T01:14:48.467Z,20.20
2018-05-26T01:15:48.622Z,20.17
2018-05-26T01:16:48.789Z,20.16
2018-05-26T01:17:48.964Z,20.20
2018-05-26T01:18:49.123Z,20.02
2018-05-26T01:19:49.297Z,20.02
2018-05-26T01:20:49.466Z,19.91
2018-05-26T01:21:49.640Z,19.81
2018-05-26T01:22:49.803Z,19.91
2018-05-26T01:23:49.964Z,19.95
2018-05-26T01:24:50.091Z,19.99
2018-05-26T01:25:50.282Z,20.06
2018-05-26T01:26:50.430Z,20.01
2018-05-26T01:27:50.594Z,20.10
2018-05-26T01:28:50.758Z,20.23
2018-05-26T01:29:50.922Z,20.23
2018-05-26T01:30:51.084Z,20.36
2018-05-26T01:31:51.245Z,20.39
2018-05-26T01:32:51.437Z,20.31
2018-05-26T01:33:51.632Z,20.35
2018-05-26T01:34:51.749Z,20.35
2018-05-26T01:35:51.906Z,20.33
2018-05-26T01:36:52.153Z,20.38
2018-05-26T01:37:52.239Z,20.32
2018-05-26T01:38:52.421Z,20.32
2018-05-26T01:39:52.576Z,20.20
2018-05-26T01:40:52.749Z,20.23
2018-05-26T01:41:52.936Z,20.20
2018-05-26T01:42:53.077Z,20.16
2018-05-26T01:43:53.267Z,20.17
2018-05-26T01:44:53.652Z,20.18
2018-05-26T01:45:53.659Z,20.18
2018-05-26T01:46:53.798Z,20.14
2018-05-26T01:47:53.972Z,20.05
2018-05-26T01:48:54.156Z,20.06
2018-05-26T01:49:54.310Z,19.98
2018-05-26T01:50:54.463Z,19.94
2018-05-26T01:51:54.631Z,19.95
2018-05-26T01:52:54.784Z,19.86
2018-05-26T01:53:54.957Z,19.84
2018-05-26T01:54:55.121Z,19.84
2018-05-26T01:55:55.299Z,19.84
2018-05-26T01:56:55.488Z,19.77
2018-05-26T01:57:55.679Z,19.84
2018-05-26T01:58:55.812Z,19.87
2018-05-26T01:59:56.244Z,19.94
2018-05-26T02:00:56.193Z,19.88
2018-05-26T02:01:56.341Z,20.01
2018-05-26T02:02:56.562Z,19.96
2018-05-26T02:03:56.728Z,19.99
2018-05-26T02:04:56.840Z,19.92
2018-05-26T02:05:57.091Z,19.88
2018-05-26T02:06:57.221Z,19.88
2018-05-26T02:07:57.382Z,19.95
2018-05-26T02:08:57.679Z,19.91
2018-05-26T02:09:57.733Z,19.98
2018-05-26T02:10:57.891Z,19.88
2018-05-26T02:11:58.174Z,19.76
2018-05-26T02:12:58.210Z,19.71
2018-05-26T02:13:58.379Z,19.58
2018-05-26T02:14:58.523Z,19.55
2018-05-26T02:15:58.733Z,19.62
2018-05-26T02:16:58.913Z,19.54
2018-05-26T02:17:59.051Z,19.47
2018-05-26T02:18:59.212Z,19.48
2018-05-26T02:19:59.421Z,19.44
2018-05-26T02:20:59.548Z,19.46
2018-05-26T02:21:59.736Z,19.44
2018-05-26T02:22:59.927Z,19.48
2018-05-26T02:24:00.381Z,19.32
2018-05-26T02:25:00.300Z,19.48
2018-05-26T02:26:00.445Z,19.41
2018-05-26T02:27:00.624Z,19.41
2018-05-26T02:28:00.911Z,19.31
2018-05-26T02:29:00.913Z,19.33
2018-05-26T02:30:01.061Z,19.33
2018-05-26T02:31:01.201Z,19.28
2018-05-26T02:32:01.500Z,19.31
2018-05-26T02:33:01.539Z,19.19
2018-05-26T02:34:01.698Z,19.28
2018-05-26T02:35:01.873Z,19.26
2018-05-26T02:36:02.084Z,19.25
2018-05-26T02:37:02.195Z,19.26
2018-05-26T02:38:02.393Z,19.31
2018-05-26T02:39:02.568Z,19.23
2018-05-26T02:40:02.690Z,19.26
2018-05-26T02:41:02.880Z,19.31
2018-05-26T02:42:03.127Z,19.28
2018-05-26T02:43:03.167Z,19.31
2018-05-26T02:44:03.336Z,19.39
2018-05-26T02:45:03.501Z,19.25
2018-05-26T02:46:03.677Z,19.29
2018-05-26T02:47:03.852Z,19.25
2018-05-26T02:48:04.015Z,19.22
2018-05-26T02:49:04.188Z,19.21
2018-05-26T02:50:04.348Z,19.29
2018-05-26T02:51:04.535Z,19.21
2018-05-26T02:52:04.703Z,19.14
2018-05-26T02:53:04.879Z,19.16
2018-05-26T02:54:05.034Z,19.22
2018-05-26T02:55:05.219Z,19.18
2018-05-26T02:56:05.368Z,19.08
2018-05-26T02:57:05.549Z,19.00
2018-05-26T02:58:05.713Z,18.98
2018-05-26T02:59:05.911Z,18.99
2018-05-26T03:00:06.180Z,18.99
2018-05-26T03:01:06.217Z,18.95
2018-05-26T03:02:06.410Z,19.11
2018-05-26T03:03:06.575Z,19.07
2018-05-26T03:04:06.742Z,19.04
2018-05-26T03:05:06.911Z,19.02
2018-05-26T03:06:07.104Z,18.99
2018-05-26T03:07:07.274Z,19.00
2018-05-26T03:08:07.452Z,19.02
2018-05-26T03:09:07.592Z,18.99
2018-05-26T03:10:07.773Z,19.06
2018-05-26T03:11:07.992Z,19.06
2018-05-26T03:12:08.122Z,19.11
2018-05-26T03:13:08.289Z,19.06
2018-05-26T03:14:08.449Z,19.02
2018-05-26T03:15:08.650Z,19.06
2018-05-26T03:16:08.788Z,19.04
2018-05-26T03:17:09.007Z,19.02
2018-05-26T03:18:09.421Z,18.95
2018-05-26T03:19:09.171Z,18.92
2018-05-26T03:20:09.341Z,18.92
2018-05-26T03:21:09.666Z,18.90
2018-05-26T03:22:09.660Z,18.99
2018-05-26T03:23:09.836Z,18.99
2018-05-26T03:24:10.008Z,18.95
2018-05-26T03:25:10.174Z,18.90
2018-05-26T03:26:10.334Z,18.91
2018-05-26T03:27:10.533Z,18.95
2018-05-26T03:28:10.705Z,19.04
2018-05-26T03:29:10.843Z,19.02
2018-05-26T03:30:11.015Z,19.07
2018-05-26T03:31:11.205Z,19.08
2018-05-26T03:32:11.381Z,19.16
2018-05-26T03:33:11.523Z,19.16
2018-05-26T03:34:11.668Z,19.16
2018-05-26T03:35:11.837Z,19.19
2018-05-26T03:36:12.895Z,19.08
2018-05-26T03:37:12.210Z,19.08
2018-05-26T03:38:13.172Z,19.02
2018-05-26T03:39:13.188Z,19.13
2018-05-26T03:40:13.048Z,19.08
2018-05-26T03:41:13.323Z,19.07
2018-05-26T03:43:46.085Z,18.99
2018-05-26T03:44:46.259Z,19.04
2018-05-26T03:45:46.638Z,19.10
2018-05-26T03:46:46.623Z,19.04
2018-05-26T03:47:46.789Z,19.08
2018-05-26T03:48:46.964Z,19.08
2018-05-26T03:49:47.757Z,19.07
2018-05-26T03:50:47.867Z,19.06
2018-05-26T03:51:47.845Z,19.08
2018-05-26T03:52:48.067Z,19.06
2018-05-26T03:53:48.076Z,18.99
2018-05-26T03:54:48.879Z,18.88
2018-05-26T03:55:48.599Z,18.87
2018-05-26T03:56:48.914Z,18.98
2018-05-26T03:57:49.225Z,18.98
2018-05-26T03:58:49.204Z,19.08
2018-05-26T03:59:48.943Z,19.06
2018-05-26T04:00:49.005Z,18.92
2018-05-26T04:01:49.180Z,19.10
2018-05-26T04:02:49.350Z,19.07
2018-05-26T04:03:49.520Z,19.11
2018-05-26T04:04:49.683Z,19.08
2018-05-26T04:05:49.873Z,18.98
2018-05-26T04:06:50.025Z,18.99
2018-05-26T04:07:50.188Z,18.92
2018-05-26T04:08:50.361Z,18.95
2018-05-26T04:09:50.537Z,18.94
2018-05-26T04:10:50.701Z,18.99
2018-05-26T04:11:50.870Z,18.90
2018-05-26T04:12:51.047Z,19.08
2018-05-26T04:13:51.214Z,19.02
2018-05-26T04:14:51.388Z,19.00
2018-05-26T04:15:51.559Z,19.07
2018-05-26T04:16:51.729Z,19.02
2018-05-26T04:17:51.898Z,19.14
2018-05-26T04:18:52.062Z,19.16
2018-05-26T04:19:52.304Z,19.26
2018-05-26T04:20:52.433Z,19.25
2018-05-26T04:21:52.609Z,19.18
2018-05-26T04:22:52.808Z,19.39
2018-05-26T04:23:52.976Z,19.28
2018-05-26T04:24:53.145Z,19.33
2018-05-26T04:25:53.502Z,19.39
2018-05-26T04:26:53.431Z,19.39
2018-05-26T04:27:53.622Z,19.44
2018-05-26T04:28:53.808Z,19.44
2018-05-26T04:29:53.978Z,19.48
2018-05-26T04:30:54.145Z,19.46
2018-05-26T04:31:54.312Z,19.39
2018-05-26T04:32:54.485Z,19.33
2018-05-26T04:33:54.645Z,19.28
2018-05-26T04:34:54.812Z,19.28
2018-05-26T04:35:54.984Z,19.21
2018-05-26T04:36:55.155Z,19.31
2018-05-26T04:37:55.559Z,19.28
2018-05-26T04:38:55.503Z,19.40
2018-05-26T04:39:55.679Z,19.32
2018-05-26T04:40:55.849Z,19.33
2018-05-26T04:41:56.308Z,19.29
2018-05-26T04:42:56.162Z,19.14
2018-05-26T04:43:56.311Z,19.18
2018-05-26T04:44:56.565Z,19.19
2018-05-26T04:45:56.627Z,19.18
2018-05-26T04:46:57.847Z,19.14
2018-05-26T04:47:57.679Z,19.26
2018-05-26T04:48:57.176Z,19.26
2018-05-26T04:49:57.350Z,19.26
2018-05-26T04:50:57.669Z,19.26
2018-05-26T04:51:57.707Z,19.29
2018-05-26T04:52:58.080Z,19.29
2018-05-26T04:53:58.080Z,19.23
2018-05-26T04:54:58.145Z,19.32
2018-05-26T04:55:58.338Z,19.23
2018-05-26T04:56:58.650Z,19.31
2018-05-26T04:57:58.657Z,19.31
2018-05-26T04:58:58.814Z,19.33
2018-05-26T04:59:58.977Z,19.33
2018-05-26T05:00:59.152Z,19.44
2018-05-26T05:01:59.321Z,19.41
2018-05-26T05:02:59.491Z,19.44
2018-05-26T05:03:59.887Z,19.48
2018-05-26T05:04:59.994Z,19.59
2018-05-26T05:05:59.986Z,19.76
2018-05-26T05:07:00.158Z,19.71
2018-05-26T05:08:00.334Z,19.76
2018-05-26T05:09:00.500Z,19.83
2018-05-26T05:10:00.808Z,19.84
2018-05-26T05:11:00.893Z,19.81
2018-05-26T05:12:01.075Z,19.94
2018-05-26T05:13:01.255Z,19.92
2018-05-26T05:14:01.647Z,19.96
2018-05-26T05:15:01.610Z,19.88
2018-05-26T05:16:01.783Z,19.88
2018-05-26T05:17:01.971Z,19.91
2018-05-26T05:18:02.268Z,19.88
2018-05-26T05:19:02.288Z,20.01
2018-05-26T05:20:02.459Z,19.99
2018-05-26T05:21:02.623Z,20.01
2018-05-26T05:22:03.000Z,20.02
2018-05-26T05:23:02.975Z,20.08
2018-05-26T05:24:03.189Z,20.10
2018-05-26T05:25:03.372Z,20.23
2018-05-26T05:26:03.507Z,20.16
2018-05-26T05:27:03.678Z,20.14
2018-05-26T05:28:03.875Z,20.18
2018-05-26T05:29:04.018Z,20.17
2018-05-26T05:30:04.189Z,20.20
2018-05-26T05:31:04.354Z,20.23
2018-05-26T05:32:04.533Z,20.32
2018-05-26T05:33:04.716Z,20.33
2018-05-26T05:34:04.869Z,20.29
2018-05-26T05:35:05.047Z,20.47
2018-05-26T05:36:05.336Z,20.41
2018-05-26T05:37:05.424Z,20.50
2018-05-26T05:38:05.609Z,20.67
2018-05-26T05:39:05.880Z,20.76
2018-05-26T05:40:05.996Z,20.73
2018-05-26T05:41:06.248Z,20.72
2018-05-26T05:42:06.313Z,20.69
2018-05-26T05:43:06.596Z,20.67
2018-05-26T05:44:06.709Z,20.59
2018-05-26T05:45:07.155Z,20.47
2018-05-26T05:46:07.094Z,20.48
2018-05-26T05:47:07.293Z,20.54
2018-05-26T05:48:07.428Z,20.47
2018-05-26T05:49:07.654Z,20.50
2018-05-26T05:50:07.948Z,20.48
2018-05-26T05:51:08.041Z,20.57
2018-05-26T05:52:09.195Z,20.43
2018-05-26T05:53:08.348Z,20.47
2018-05-26T05:54:08.550Z,20.43
2018-05-26T05:55:08.917Z,20.41
2018-05-26T05:56:09.166Z,20.51
2018-05-26T05:57:09.055Z,20.61
2018-05-26T05:58:09.221Z,20.58
2018-05-26T05:59:09.396Z,20.64
2018-05-26T06:00:09.751Z,20.62
2018-05-26T06:01:09.894Z,20.70
2018-05-26T06:02:10.112Z,20.73
2018-05-26T06:03:10.214Z,20.70
2018-05-26T06:04:10.473Z,20.73
2018-05-26T06:05:10.573Z,20.70
2018-05-26T06:06:10.673Z,20.70
2018-05-26T06:07:10.828Z,20.69
2018-05-26T06:08:11.254Z,20.70
2018-05-26T06:09:11.178Z,20.66
2018-05-26T06:10:11.302Z,20.59
2018-05-26T06:11:11.473Z,20.67
2018-05-26T06:12:11.647Z,20.67
2018-05-26T06:13:11.821Z,20.69
2018-05-26T06:14:11.975Z,20.70
2018-05-26T06:15:12.229Z,20.73
2018-05-26T06:16:12.395Z,20.67
2018-05-26T06:17:12.540Z,20.77
2018-05-26T06:18:12.737Z,20.84
2018-05-26T06:19:12.893Z,20.95
2018-05-26T06:20:13.066Z,21.09
2018-05-26T06:21:13.243Z,21.16
2018-05-26T06:22:13.408Z,21.34
2018-05-26T06:23:13.578Z,21.34
2018-05-26T06:24:13.752Z,21.53
2018-05-26T06:25:13.936Z,21.52
2018-05-26T06:26:14.101Z,21.64
2018-05-26T06:27:14.271Z,21.75
2018-05-26T06:28:14.440Z,21.91
2018-05-26T06:29:14.613Z,21.86
2018-05-26T06:30:14.788Z,22.00
2018-05-26T06:31:15.010Z,22.06
2018-05-26T06:32:15.132Z,22.12
2018-05-26T06:33:15.371Z,22.15
2018-05-26T06:34:15.429Z,22.21
2018-05-26T06:35:15.600Z,22.31
2018-05-26T06:36:15.862Z,22.33
2018-05-26T06:37:15.907Z,22.36
2018-05-26T06:38:16.086Z,22.40
2018-05-26T06:39:16.250Z,22.40
2018-05-26T06:40:16.557Z,22.40
2018-05-26T06:41:16.625Z,22.52
2018-05-26T06:42:16.958Z,22.67
2018-05-26T06:43:16.928Z,22.68
2018-05-26T06:44:17.103Z,22.62
2018-05-26T06:45:17.375Z,22.79
2018-05-26T06:46:17.440Z,22.86
2018-05-26T06:47:17.611Z,22.98
2018-05-26T06:48:18.790Z,22.83
2018-05-26T06:49:17.936Z,22.95
2018-05-26T06:50:18.115Z,23.00
2018-05-26T06:51:18.397Z,23.10
2018-05-26T06:52:18.464Z,23.04
2018-05-26T06:53:18.634Z,22.77
2018-05-26T06:54:18.804Z,22.86
2018-05-26T06:55:18.975Z,23.05
2018-05-26T06:56:19.140Z,23.12
2018-05-26T06:57:19.321Z,23.16
2018-05-26T06:58:19.526Z,23.28
2018-05-26T06:59:19.673Z,23.40
2018-05-26T07:00:19.981Z,23.54
2018-05-26T07:01:19.999Z,23.48
2018-05-26T07:02:20.297Z,23.48
2018-05-26T07:03:20.382Z,23.55
2018-05-26T07:04:20.557Z,23.70
2018-05-26T07:05:20.731Z,23.68
2018-05-26T07:06:20.896Z,23.73
2018-05-26T07:07:21.072Z,23.93
2018-05-26T07:08:21.248Z,24.08
2018-05-26T07:09:21.443Z,24.21
2018-05-26T07:10:21.620Z,24.20
2018-05-26T07:11:21.827Z,24.37
2018-05-26T07:12:22.145Z,24.37
2018-05-26T07:13:22.241Z,24.45
2018-05-26T07:14:22.413Z,24.50
2018-05-26T07:15:22.733Z,24.47
2018-05-26T07:16:23.873Z,24.62
2018-05-26T07:17:23.137Z,24.78
2018-05-26T07:18:23.296Z,24.80
2018-05-26T07:19:23.346Z,24.88
2018-05-26T07:20:23.526Z,24.88
2018-05-26T07:21:23.704Z,24.93
2018-05-26T07:22:23.985Z,25.03
2018-05-26T07:23:23.992Z,25.08
2018-05-26T07:24:24.208Z,25.17
2018-05-26T07:25:24.364Z,25.24
2018-05-26T07:26:24.536Z,25.32
2018-05-26T07:27:25.694Z,25.38
2018-05-26T07:28:24.880Z,25.30
2018-05-26T07:29:25.047Z,25.27
2018-05-26T07:30:25.210Z,25.39
2018-05-26T07:31:25.391Z,25.45
2018-05-26T07:32:25.573Z,25.58
2018-05-26T07:33:25.745Z,25.54
2018-05-26T07:34:26.034Z,25.60
2018-05-26T07:35:26.030Z,25.65
2018-05-26T07:36:26.202Z,25.70
2018-05-26T07:37:26.371Z,25.80
2018-05-26T07:38:26.551Z,25.83
2018-05-26T07:39:26.811Z,26.02
2018-05-26T07:40:26.922Z,25.95
2018-05-26T07:41:27.703Z,26.05
2018-05-26T07:42:27.131Z,26.12
2018-05-26T07:43:27.311Z,26.13
2018-05-26T07:44:27.481Z,26.10
2018-05-26T07:45:27.662Z,26.28
2018-05-26T07:46:27.838Z,26.30
2018-05-26T07:47:27.995Z,26.40
2018-05-26T07:48:28.170Z,26.44
2018-05-26T07:49:28.351Z,26.55
2018-05-26T07:50:28.519Z,26.65
2018-05-26T07:51:28.701Z,26.70
2018-05-26T07:52:30.709Z,26.73
2018-05-26T07:53:29.041Z,26.70
2018-05-26T07:54:30.702Z,26.85
2018-05-26T07:55:30.209Z,26.82
2018-05-26T07:56:29.582Z,26.81
2018-05-26T07:57:29.695Z,26.87
2018-05-26T07:58:29.862Z,26.87
2018-05-26T07:59:30.038Z,26.97
2018-05-26T08:00:31.205Z,26.91
2018-05-26T08:01:30.394Z,27.03
2018-05-26T08:02:30.576Z,27.07
2018-05-26T08:03:30.764Z,27.09
2018-05-26T08:04:30.943Z,27.14
2018-05-26T08:05:31.115Z,27.25
2018-05-26T08:06:31.294Z,27.32
2018-05-26T08:07:31.462Z,27.29
2018-05-26T08:08:31.640Z,27.19
2018-05-26T08:09:31.822Z,27.28
2018-05-26T08:10:31.985Z,27.34
2018-05-26T08:11:32.167Z,27.43
2018-05-26T08:12:33.216Z,27.46
2018-05-26T08:13:32.589Z,27.50
2018-05-26T08:14:32.798Z,27.44
2018-05-26T08:15:33.243Z,27.66
2018-05-26T08:16:33.072Z,27.70
2018-05-26T08:17:34.210Z,27.72
2018-05-26T08:18:33.396Z,27.72
2018-05-26T08:19:33.652Z,27.75
2018-05-26T08:20:33.801Z,27.72
2018-05-26T08:21:34.105Z,27.75
2018-05-26T08:22:34.162Z,27.87
2018-05-26T08:23:34.335Z,27.90
2018-05-26T08:24:34.530Z,27.92
2018-05-26T08:25:34.860Z,28.00
2018-05-26T08:26:34.855Z,28.04
2018-05-26T08:27:35.026Z,28.12
2018-05-26T08:28:35.201Z,28.17
2018-05-26T08:29:35.382Z,28.24
2018-05-26T08:30:35.555Z,28.29
2018-05-26T08:31:35.772Z,28.29
2018-05-26T08:32:35.894Z,28.33
2018-05-26T08:33:36.070Z,28.46
2018-05-26T08:34:36.360Z,28.46
2018-05-26T08:35:36.481Z,28.49
2018-05-26T08:36:36.676Z,28.61
2018-05-26T08:37:36.826Z,28.64
2018-05-26T08:38:37.014Z,28.62
2018-05-26T08:39:37.210Z,28.56
2018-05-26T08:40:37.375Z,28.66
2018-05-26T08:41:37.686Z,28.68
2018-05-26T08:42:37.759Z,28.74
2018-05-26T08:43:37.935Z,28.86
2018-05-26T08:44:38.114Z,28.83
2018-05-26T08:45:38.287Z,28.90
2018-05-26T08:46:38.453Z,29.05
2018-05-26T08:47:38.637Z,29.19
2018-05-26T08:48:38.818Z,29.28
2018-05-26T08:49:38.983Z,29.34
2018-05-26T08:50:39.729Z,29.39
2018-05-26T08:51:39.289Z,29.58
2018-05-26T08:52:39.461Z,29.70
2018-05-26T08:53:39.674Z,29.65
2018-05-26T08:54:39.876Z,29.79
2018-05-26T08:55:40.105Z,29.85
2018-05-26T08:56:40.225Z,29.86
2018-05-26T08:57:40.412Z,29.90
2018-05-26T08:58:41.224Z,29.85
2018-05-26T08:59:40.844Z,29.86
2018-05-26T09:00:40.960Z,29.82
2018-05-26T09:01:41.658Z,29.87
2018-05-26T09:02:41.275Z,29.83
2018-05-26T09:03:41.462Z,29.85
2018-05-26T09:04:41.740Z,30.04
2018-05-26T09:05:42.738Z,30.29
2018-05-26T09:06:42.043Z,30.39
2018-05-26T09:07:42.211Z,30.57
2018-05-26T09:08:42.385Z,30.67
2018-05-26T09:09:42.561Z,30.60
2018-05-26T09:10:42.742Z,30.77
2018-05-26T09:11:42.927Z,30.84
2018-05-26T09:12:43.725Z,30.76
2018-05-26T09:13:43.280Z,31.21
2018-05-26T09:14:43.493Z,31.96
2018-05-26T09:15:43.680Z,32.88
2018-05-26T09:16:43.852Z,33.97
2018-05-26T09:17:44.040Z,34.72
2018-05-26T09:18:44.779Z,34.94
2018-05-26T09:19:44.562Z,35.62
2018-05-26T09:20:44.683Z,35.94
2018-05-26T09:21:44.721Z,36.81
2018-05-26T09:22:44.923Z,37.39
2018-05-26T09:23:45.111Z,38.26
2018-05-26T09:24:46.227Z,39.04
2018-05-26T09:25:45.423Z,39.52
2018-05-26T09:26:45.873Z,40.04
2018-05-26T09:27:45.852Z,40.64
2018-05-26T09:28:46.727Z,41.10
2018-05-26T09:29:46.324Z,41.32
2018-05-26T09:30:46.466Z,41.64
2018-05-26T09:31:46.657Z,41.99
2018-05-26T09:32:46.846Z,42.31
2018-05-26T09:33:47.726Z,42.55
2018-05-26T09:34:47.161Z,42.52
2018-05-26T09:35:48.252Z,42.84
2018-05-26T09:36:47.557Z,43.08
2018-05-26T09:37:47.739Z,43.28
2018-05-26T09:38:47.928Z,43.18
2018-05-26T09:39:48.195Z,43.49
2018-05-26T09:40:48.262Z,43.66
2018-05-26T09:41:48.466Z,43.87
2018-05-26T09:42:48.634Z,44.02
2018-05-26T09:43:48.847Z,44.05
2018-05-26T09:44:49.201Z,43.71
2018-05-26T09:45:49.209Z,43.45
2018-05-26T09:46:49.423Z,43.71
2018-05-26T09:47:49.585Z,42.35
2018-05-26T09:48:49.771Z,41.86
2018-05-26T09:49:49.970Z,41.55
2018-05-26T09:50:50.142Z,41.96
2018-05-26T09:51:50.344Z,41.74
2018-05-26T09:52:50.649Z,41.73
2018-05-26T09:53:50.978Z,41.76
2018-05-26T09:54:51.107Z,42.28
2018-05-26T09:55:51.176Z,41.71
2018-05-26T09:56:51.379Z,41.21
2018-05-26T09:57:51.549Z,40.07
2018-05-26T09:58:51.743Z,40.89
2018-05-26T09:59:51.919Z,41.51
2018-05-26T10:00:52.106Z,41.86
2018-05-26T10:01:52.298Z,42.55
2018-05-26T10:02:52.483Z,43.22
2018-05-26T10:03:52.895Z,43.93
2018-05-26T10:04:52.841Z,44.44
2018-05-26T10:05:53.032Z,44.82
2018-05-26T10:06:53.213Z,45.40
2018-05-26T10:07:53.411Z,45.38
2018-05-26T10:08:53.575Z,45.76
2018-05-26T10:09:53.768Z,45.81
2018-05-26T10:10:53.962Z,45.26
2018-05-26T10:11:54.155Z,45.73
2018-05-26T10:12:54.345Z,45.69
2018-05-26T10:13:54.538Z,45.57
2018-05-26T10:14:54.736Z,46.08
2018-05-26T10:15:54.927Z,46.37
2018-05-26T10:16:55.122Z,46.40
2018-05-26T10:17:55.328Z,46.69
2018-05-26T10:18:55.539Z,46.71
2018-05-26T10:19:55.734Z,47.12
2018-05-26T10:20:55.921Z,47.00
2018-05-26T10:21:56.135Z,46.93
2018-05-26T10:22:56.330Z,45.50
2018-05-26T10:23:56.533Z,45.55
2018-05-26T10:24:56.728Z,45.93
2018-05-26T10:25:56.936Z,45.93
2018-05-26T10:26:57.213Z,46.34
2018-05-26T10:27:57.275Z,46.50
2018-05-26T10:28:57.470Z,46.78
2018-05-26T10:29:57.696Z,47.07
2018-05-26T10:30:57.859Z,47.36
2018-05-26T10:31:58.056Z,47.47
2018-05-26T10:32:58.282Z,47.33
2018-05-26T10:33:58.463Z,46.50
2018-05-26T10:34:58.663Z,46.05
2018-05-26T10:35:58.877Z,46.35
2018-05-26T10:36:59.057Z,46.61
2018-05-26T10:37:59.267Z,46.54
2018-05-26T10:38:59.817Z,46.40
2018-05-26T10:39:59.756Z,46.34
2018-05-26T10:40:59.893Z,46.88
2018-05-26T10:42:00.096Z,47.03
2018-05-26T10:43:00.296Z,47.22
2018-05-26T10:44:00.496Z,47.83
2018-05-26T10:45:00.703Z,48.09
2018-05-26T10:46:00.908Z,48.02
2018-05-26T10:47:01.092Z,48.17
2018-05-26T10:48:01.283Z,48.28
2018-05-26T10:49:01.487Z,48.37
2018-05-26T10:50:01.760Z,48.66
2018-05-26T10:51:01.911Z,48.79
2018-05-26T10:52:02.298Z,48.32
2018-05-26T10:53:02.325Z,48.45
2018-05-26T10:54:02.530Z,48.66
2018-05-26T10:55:02.768Z,48.60
2018-05-26T10:56:02.954Z,48.48
2018-05-26T10:57:03.159Z,48.44
2018-05-26T10:58:03.362Z,48.23
2018-05-26T10:59:03.565Z,48.54
2018-05-26T11:00:03.767Z,48.61
2018-05-26T11:01:04.784Z,48.14
2018-05-26T11:02:04.202Z,47.98
2018-05-26T11:03:04.395Z,47.34
2018-05-26T11:04:04.599Z,47.53
2018-05-26T11:05:04.793Z,47.03
2018-05-26T11:06:05.000Z,46.31
2018-05-26T11:07:05.200Z,46.84
2018-05-26T11:08:05.404Z,47.07
2018-05-26T11:09:05.607Z,47.57
2018-05-26T11:10:05.801Z,47.31
2018-05-26T11:11:06.081Z,46.96
2018-05-26T11:12:06.226Z,46.91
2018-05-26T11:13:06.429Z,45.85
2018-05-26T11:14:06.606Z,46.34
2018-05-26T11:15:06.811Z,46.64
2018-05-26T11:16:07.048Z,47.09
2018-05-26T11:17:07.240Z,46.08
2018-05-26T11:18:07.406Z,45.50
2018-05-26T11:19:07.611Z,44.25
2018-05-26T11:20:07.809Z,44.14
2018-05-26T11:21:08.017Z,42.83
2018-05-26T11:22:08.223Z,42.52
2018-05-26T11:23:08.449Z,41.71
2018-05-26T11:24:08.793Z,42.83
2018-05-26T11:25:08.832Z,44.02
2018-05-26T11:26:09.097Z,44.92
2018-05-26T11:27:09.233Z,45.86
2018-05-26T11:28:09.430Z,46.46
2018-05-26T11:29:09.627Z,46.93
2018-05-26T11:30:09.824Z,46.74
2018-05-26T11:31:10.092Z,46.56
2018-05-26T11:32:10.219Z,46.80
2018-05-26T11:33:10.465Z,46.45
2018-05-26T11:34:10.630Z,44.86
2018-05-26T11:35:10.836Z,44.76
2018-05-26T11:36:11.045Z,44.03
2018-05-26T11:37:11.267Z,44.31
2018-05-26T11:38:11.439Z,44.02
2018-05-26T11:39:11.645Z,44.02
2018-05-26T11:40:11.840Z,43.56
2018-05-26T11:41:12.044Z,43.60
2018-05-26T11:42:12.251Z,43.78
2018-05-26T11:43:12.430Z,44.48
2018-05-26T11:44:12.627Z,45.12
2018-05-26T11:45:12.864Z,44.94
2018-05-26T11:46:13.065Z,44.86
2018-05-26T11:47:13.263Z,44.75
2018-05-26T11:48:13.461Z,44.47
2018-05-26T11:49:13.666Z,43.76
2018-05-26T11:50:13.860Z,44.36
2018-05-26T11:51:14.066Z,44.82
2018-05-26T11:52:14.310Z,44.82
2018-05-26T11:53:14.525Z,45.55
2018-05-26T11:54:14.677Z,45.99
2018-05-26T11:55:14.872Z,46.27
2018-05-26T11:56:15.064Z,46.39
2018-05-26T11:57:15.382Z,46.62
2018-05-26T11:58:15.489Z,47.02
2018-05-26T11:59:15.672Z,47.57
2018-05-26T12:00:15.875Z,48.10
2018-05-26T12:01:16.096Z,48.39
2018-05-26T12:02:16.288Z,48.32
2018-05-26T12:03:16.476Z,48.48
2018-05-26T12:04:16.671Z,48.98
2018-05-26T12:05:16.906Z,49.39
2018-05-26T12:06:17.097Z,49.58
2018-05-26T12:07:17.293Z,49.71
2018-05-26T12:08:17.517Z,49.82
2018-05-26T12:09:17.720Z,50.04
2018-05-26T12:10:17.919Z,49.99
2018-05-26T12:11:18.122Z,50.06
2018-05-26T12:12:18.325Z,50.04
2018-05-26T12:13:18.522Z,49.74
2018-05-26T12:14:18.727Z,49.90
2018-05-26T12:15:18.925Z,50.00
2018-05-26T12:16:19.122Z,50.28
2018-05-26T12:17:19.337Z,50.40
2018-05-26T12:18:19.535Z,50.61
2018-05-26T12:19:19.751Z,50.67
2018-05-26T12:20:20.144Z,50.55
2018-05-26T12:21:20.229Z,50.63
2018-05-26T12:22:20.441Z,50.27
2018-05-26T12:23:20.634Z,50.04
2018-05-26T12:28:26.676Z,48.81
2018-05-26T12:28:47.323Z,48.99
2018-05-26T12:29:47.520Z,48.91
2018-05-26T12:30:47.720Z,48.94
2018-05-26T12:31:47.922Z,47.64
2018-05-26T12:32:48.128Z,46.05
2018-05-26T12:33:48.322Z,44.53
2018-05-26T12:34:48.524Z,43.65
2018-05-26T12:37:32.686Z,41.57
2018-05-26T12:38:30.755Z,40.94
2018-05-26T12:39:30.951Z,40.34
2018-05-26T12:40:31.136Z,40.06
2018-05-26T12:41:31.331Z,39.85
2018-05-26T12:42:31.526Z,39.81
2018-05-26T12:43:31.718Z,39.60
2018-05-26T12:44:31.917Z,39.50
2018-05-26T12:45:32.104Z,39.09
2018-05-26T12:46:32.302Z,38.91
2018-05-26T12:47:32.491Z,38.78
2018-05-26T12:48:33.590Z,38.34
2018-05-26T12:49:32.903Z,38.01
2018-05-26T12:50:33.080Z,37.96
2018-05-26T12:51:33.273Z,37.79
2018-05-26T12:52:33.459Z,37.55
2018-05-26T12:53:33.653Z,37.56
2018-05-26T12:54:33.838Z,37.28
2018-05-26T12:55:34.027Z,37.18
2018-05-26T12:56:34.204Z,37.25
2018-05-26T12:57:34.393Z,37.20
2018-05-26T12:58:34.586Z,37.31
2018-05-26T12:59:35.585Z,37.24
2018-05-26T13:00:34.974Z,36.71
2018-05-26T13:01:35.166Z,36.12